sensor_id;sensor_type;location;lat;lon;timestamp;temperature;humidity
24152;DHT22;12311;50.866;4.332;2022-07-05T00:00:49;16.60;99.90
24152;DHT22;12311;50.866;4.332;2022-07-05T00:03:15;16.50;99.90
24152;DHT22;12311;50.866;4.332;2022-07-05T00:05:41;16.50;99.90
24152;DHT22;12311;50.866;4.332;2022-07-05T00:08:07;16.50;99.90
24152;DHT22;12311;50.866;4.332;2022-07-05T00:10:34;16.50;99.90
24152;DHT22;12311;50.866;4.332;2022-07-05T00:12:59;16.40;99.90
24152;DHT22;12311;50.866;4.332;2022-07-05T00:15:25;16.50;99.90
24152;DHT22;12311;50.866;4.332;2022-07-05T00:17:51;16.60;99.90
24152;DHT22;12311;50.866;4.332;2022-07-05T00:20:16;16.50;99.90
24152;DHT22;12311;50.866;4.332;2022-07-05T00:22:42;16.50;99.90
24152;DHT22;12311;50.866;4.332;2022-07-05T00:25:08;16.40;99.90
24152;DHT22;12311;50.866;4.332;2022-07-05T00:27:34;16.40;99.90
24152;DHT22;12311;50.866;4.332;2022-07-05T00:30:00;16.50;99.90
24152;DHT22;12311;50.866;4.332;2022-07-05T00:32:26;16.40;99.90
24152;DHT22;12311;50.866;4.332;2022-07-05T00:34:51;16.30;99.90
24152;DHT22;12311;50.866;4.332;2022-07-05T00:37:17;16.40;99.90
24152;DHT22;12311;50.866;4.332;2022-07-05T00:39:43;16.40;99.90
24152;DHT22;12311;50.866;4.332;2022-07-05T00:42:09;16.40;99.90
24152;DHT22;12311;50.866;4.332;2022-07-05T00:44:37;16.40;99.90
24152;DHT22;12311;50.866;4.332;2022-07-05T00:47:08;16.40;99.90
24152;DHT22;12311;50.866;4.332;2022-07-05T00:49:34;16.50;99.90
24152;DHT22;12311;50.866;4.332;2022-07-05T00:52:01;16.60;99.90
24152;DHT22;12311;50.866;4.332;2022-07-05T00:54:28;16.60;99.90
24152;DHT22;12311;50.866;4.332;2022-07-05T00:56:55;16.50;99.90
24152;DHT22;12311;50.866;4.332;2022-07-05T00:59:21;16.60;99.90
24152;DHT22;12311;50.866;4.332;2022-07-05T01:01:47;16.60;99.90
24152;DHT22;12311;50.866;4.332;2022-07-05T01:04:13;16.60;99.90
24152;DHT22;12311;50.866;4.332;2022-07-05T01:06:40;16.50;99.90
24152;DHT22;12311;50.866;4.332;2022-07-05T01:09:10;16.50;99.90
24152;DHT22;12311;50.866;4.332;2022-07-05T01:11:36;16.40;99.90
24152;DHT22;12311;50.866;4.332;2022-07-05T01:14:02;16.40;99.90
24152;DHT22;12311;50.866;4.332;2022-07-05T01:16:28;16.30;99.90
24152;DHT22;12311;50.866;4.332;2022-07-05T01:18:54;16.40;99.90
24152;DHT22;12311;50.866;4.332;2022-07-05T01:21:21;16.40;99.90
24152;DHT22;12311;50.866;4.332;2022-07-05T01:23:48;16.60;99.90
24152;DHT22;12311;50.866;4.332;2022-07-05T01:26:15;16.60;99.90
24152;DHT22;12311;50.866;4.332;2022-07-05T01:28:41;16.60;99.90
24152;DHT22;12311;50.866;4.332;2022-07-05T01:31:07;16.40;99.90
24152;DHT22;12311;50.866;4.332;2022-07-05T01:33:32;16.30;99.90
24152;DHT22;12311;50.866;4.332;2022-07-05T01:35:58;16.20;99.90
24152;DHT22;12311;50.866;4.332;2022-07-05T01:38:25;16.20;99.90
24152;DHT22;12311;50.866;4.332;2022-07-05T01:40:51;16.30;99.90
24152;DHT22;12311;50.866;4.332;2022-07-05T01:43:21;16.30;99.90
24152;DHT22;12311;50.866;4.332;2022-07-05T01:45:48;16.30;99.90
24152;DHT22;12311;50.866;4.332;2022-07-05T01:48:17;16.10;99.90
24152;DHT22;12311;50.866;4.332;2022-07-05T01:50:49;16.20;99.90
24152;DHT22;12311;50.866;4.332;2022-07-05T01:53:20;16.10;99.90
24152;DHT22;12311;50.866;4.332;2022-07-05T01:55:49;16.10;99.90
24152;DHT22;12311;50.866;4.332;2022-07-05T01:58:15;16.00;99.90
24152;DHT22;12311;50.866;4.332;2022-07-05T02:00:49;15.90;99.90
24152;DHT22;12311;50.866;4.332;2022-07-05T02:03:16;15.90;99.90
24152;DHT22;12311;50.866;4.332;2022-07-05T02:05:43;15.90;99.90
24152;DHT22;12311;50.866;4.332;2022-07-05T02:08:10;15.90;99.90
24152;DHT22;12311;50.866;4.332;2022-07-05T02:10:37;15.90;99.90
24152;DHT22;12311;50.866;4.332;2022-07-05T02:13:03;15.80;99.90
24152;DHT22;12311;50.866;4.332;2022-07-05T02:15:33;15.90;99.90
24152;DHT22;12311;50.866;4.332;2022-07-05T02:18:00;15.80;99.90
24152;DHT22;12311;50.866;4.332;2022-07-05T02:20:26;15.80;99.90
24152;DHT22;12311;50.866;4.332;2022-07-05T02:22:52;15.70;99.90
24152;DHT22;12311;50.866;4.332;2022-07-05T02:25:18;15.70;99.90
24152;DHT22;12311;50.866;4.332;2022-07-05T02:27:44;15.80;99.90
24152;DHT22;12311;50.866;4.332;2022-07-05T02:30:10;15.70;99.90
24152;DHT22;12311;50.866;4.332;2022-07-05T02:32:36;15.80;99.90
24152;DHT22;12311;50.866;4.332;2022-07-05T02:35:03;15.70;99.90
24152;DHT22;12311;50.866;4.332;2022-07-05T02:37:29;15.70;99.90
24152;DHT22;12311;50.866;4.332;2022-07-05T02:39:55;15.60;99.90
24152;DHT22;12311;50.866;4.332;2022-07-05T02:42:20;15.50;99.90
24152;DHT22;12311;50.866;4.332;2022-07-05T02:44:46;15.50;99.90
24152;DHT22;12311;50.866;4.332;2022-07-05T02:47:12;15.50;99.90
24152;DHT22;12311;50.866;4.332;2022-07-05T02:49:38;15.50;99.90
24152;DHT22;12311;50.866;4.332;2022-07-05T02:52:03;15.50;99.90
24152;DHT22;12311;50.866;4.332;2022-07-05T02:54:29;15.50;99.90
24152;DHT22;12311;50.866;4.332;2022-07-05T02:56:55;15.50;99.90
24152;DHT22;12311;50.866;4.332;2022-07-05T02:59:20;15.50;99.90
24152;DHT22;12311;50.866;4.332;2022-07-05T03:01:46;15.50;99.90
24152;DHT22;12311;50.866;4.332;2022-07-05T03:04:12;15.50;99.90
24152;DHT22;12311;50.866;4.332;2022-07-05T03:06:37;15.40;99.90
24152;DHT22;12311;50.866;4.332;2022-07-05T03:09:04;15.40;99.90
24152;DHT22;12311;50.866;4.332;2022-07-05T03:11:29;15.20;99.90
24152;DHT22;12311;50.866;4.332;2022-07-05T03:13:55;15.20;99.90
24152;DHT22;12311;50.866;4.332;2022-07-05T03:16:21;15.20;99.90
24152;DHT22;12311;50.866;4.332;2022-07-05T03:18:52;15.20;99.90
24152;DHT22;12311;50.866;4.332;2022-07-05T03:21:17;15.20;99.90
24152;DHT22;12311;50.866;4.332;2022-07-05T03:23:43;15.20;99.90
24152;DHT22;12311;50.866;4.332;2022-07-05T03:26:09;15.10;99.90
24152;DHT22;12311;50.866;4.332;2022-07-05T03:28:34;15.10;99.90
24152;DHT22;12311;50.866;4.332;2022-07-05T03:31:00;15.10;99.90
24152;DHT22;12311;50.866;4.332;2022-07-05T03:33:26;15.00;99.90
24152;DHT22;12311;50.866;4.332;2022-07-05T03:35:52;15.00;99.90
24152;DHT22;12311;50.866;4.332;2022-07-05T03:38:18;15.00;99.90
24152;DHT22;12311;50.866;4.332;2022-07-05T03:40:43;14.90;99.90
24152;DHT22;12311;50.866;4.332;2022-07-05T03:43:09;14.90;99.90
24152;DHT22;12311;50.866;4.332;2022-07-05T03:45:35;14.90;99.90
24152;DHT22;12311;50.866;4.332;2022-07-05T03:48:01;14.90;99.90
24152;DHT22;12311;50.866;4.332;2022-07-05T03:50:27;14.80;99.90
24152;DHT22;12311;50.866;4.332;2022-07-05T03:52:53;14.80;99.90
24152;DHT22;12311;50.866;4.332;2022-07-05T03:55:19;14.70;99.90
24152;DHT22;12311;50.866;4.332;2022-07-05T03:57:45;14.80;99.90
24152;DHT22;12311;50.866;4.332;2022-07-05T04:00:11;14.80;99.90
24152;DHT22;12311;50.866;4.332;2022-07-05T04:02:37;14.80;99.90
24152;DHT22;12311;50.866;4.332;2022-07-05T04:05:03;14.80;99.90
24152;DHT22;12311;50.866;4.332;2022-07-05T04:07:29;14.80;99.90
24152;DHT22;12311;50.866;4.332;2022-07-05T04:09:55;14.80;99.90
24152;DHT22;12311;50.866;4.332;2022-07-05T04:12:20;14.70;99.90
24152;DHT22;12311;50.866;4.332;2022-07-05T04:14:46;14.70;99.90
24152;DHT22;12311;50.866;4.332;2022-07-05T04:17:12;14.60;99.90
24152;DHT22;12311;50.866;4.332;2022-07-05T04:19:38;14.50;99.90
24152;DHT22;12311;50.866;4.332;2022-07-05T04:22:04;14.40;99.90
24152;DHT22;12311;50.866;4.332;2022-07-05T04:24:29;14.50;99.90
24152;DHT22;12311;50.866;4.332;2022-07-05T04:26:55;14.60;99.90
24152;DHT22;12311;50.866;4.332;2022-07-05T04:29:21;14.70;99.90
24152;DHT22;12311;50.866;4.332;2022-07-05T04:31:47;14.70;99.90
24152;DHT22;12311;50.866;4.332;2022-07-05T04:34:13;14.70;99.90
24152;DHT22;12311;50.866;4.332;2022-07-05T04:36:39;14.60;99.90
24152;DHT22;12311;50.866;4.332;2022-07-05T04:39:07;14.60;99.90
24152;DHT22;12311;50.866;4.332;2022-07-05T04:41:33;14.50;99.90
24152;DHT22;12311;50.866;4.332;2022-07-05T04:43:59;14.50;99.90
24152;DHT22;12311;50.866;4.332;2022-07-05T04:46:24;14.50;99.90
24152;DHT22;12311;50.866;4.332;2022-07-05T04:48:50;14.60;99.90
24152;DHT22;12311;50.866;4.332;2022-07-05T04:51:16;14.60;99.90
24152;DHT22;12311;50.866;4.332;2022-07-05T04:53:42;14.60;99.90
24152;DHT22;12311;50.866;4.332;2022-07-05T04:56:08;14.60;99.90
24152;DHT22;12311;50.866;4.332;2022-07-05T04:58:34;14.70;99.90
24152;DHT22;12311;50.866;4.332;2022-07-05T05:01:00;14.80;99.90
24152;DHT22;12311;50.866;4.332;2022-07-05T05:03:25;14.80;99.90
24152;DHT22;12311;50.866;4.332;2022-07-05T05:05:51;14.80;99.90
24152;DHT22;12311;50.866;4.332;2022-07-05T05:08:17;15.00;99.90
24152;DHT22;12311;50.866;4.332;2022-07-05T05:10:42;15.00;99.90
24152;DHT22;12311;50.866;4.332;2022-07-05T05:13:08;15.00;99.90
24152;DHT22;12311;50.866;4.332;2022-07-05T05:15:34;15.20;99.90
24152;DHT22;12311;50.866;4.332;2022-07-05T05:17:59;15.20;99.90
24152;DHT22;12311;50.866;4.332;2022-07-05T05:20:25;15.10;99.90
24152;DHT22;12311;50.866;4.332;2022-07-05T05:22:51;15.20;99.90
24152;DHT22;12311;50.866;4.332;2022-07-05T05:25:17;15.20;99.90
24152;DHT22;12311;50.866;4.332;2022-07-05T05:27:48;15.20;99.90
24152;DHT22;12311;50.866;4.332;2022-07-05T05:30:16;15.10;99.90
24152;DHT22;12311;50.866;4.332;2022-07-05T05:32:42;15.00;99.90
24152;DHT22;12311;50.866;4.332;2022-07-05T05:35:08;15.10;99.90
24152;DHT22;12311;50.866;4.332;2022-07-05T05:37:53;15.20;99.90
24152;DHT22;12311;50.866;4.332;2022-07-05T05:40:20;15.40;99.90
24152;DHT22;12311;50.866;4.332;2022-07-05T05:42:46;15.50;99.90
24152;DHT22;12311;50.866;4.332;2022-07-05T05:45:12;15.50;99.90
24152;DHT22;12311;50.866;4.332;2022-07-05T05:50:17;15.60;99.90
24152;DHT22;12311;50.866;4.332;2022-07-05T05:52:43;15.60;99.90
24152;DHT22;12311;50.866;4.332;2022-07-05T05:55:09;15.60;99.90
24152;DHT22;12311;50.866;4.332;2022-07-05T05:57:34;15.60;99.90
24152;DHT22;12311;50.866;4.332;2022-07-05T06:00:04;15.70;99.90
24152;DHT22;12311;50.866;4.332;2022-07-05T06:02:30;15.70;99.90
24152;DHT22;12311;50.866;4.332;2022-07-05T06:04:55;15.70;99.90
24152;DHT22;12311;50.866;4.332;2022-07-05T06:07:21;15.80;99.90
24152;DHT22;12311;50.866;4.332;2022-07-05T06:09:47;16.00;99.90
24152;DHT22;12311;50.866;4.332;2022-07-05T06:12:13;16.10;99.90
24152;DHT22;12311;50.866;4.332;2022-07-05T06:14:39;16.10;99.90
24152;DHT22;12311;50.866;4.332;2022-07-05T06:17:04;16.10;99.90
24152;DHT22;12311;50.866;4.332;2022-07-05T06:19:30;16.30;99.90
24152;DHT22;12311;50.866;4.332;2022-07-05T06:21:56;16.30;99.90
24152;DHT22;12311;50.866;4.332;2022-07-05T06:24:21;16.40;99.90
24152;DHT22;12311;50.866;4.332;2022-07-05T06:26:47;16.40;99.90
24152;DHT22;12311;50.866;4.332;2022-07-05T06:29:12;16.50;99.90
24152;DHT22;12311;50.866;4.332;2022-07-05T06:31:38;16.60;99.90
24152;DHT22;12311;50.866;4.332;2022-07-05T06:34:04;16.60;99.90
24152;DHT22;12311;50.866;4.332;2022-07-05T06:36:29;16.60;99.90
24152;DHT22;12311;50.866;4.332;2022-07-05T06:38:55;16.70;99.90
24152;DHT22;12311;50.866;4.332;2022-07-05T06:41:21;16.90;99.90
24152;DHT22;12311;50.866;4.332;2022-07-05T06:43:46;17.00;99.90
24152;DHT22;12311;50.866;4.332;2022-07-05T06:46:12;17.00;99.90
24152;DHT22;12311;50.866;4.332;2022-07-05T06:48:38;16.90;99.90
24152;DHT22;12311;50.866;4.332;2022-07-05T06:51:04;17.10;99.90
24152;DHT22;12311;50.866;4.332;2022-07-05T06:53:33;17.10;99.90
24152;DHT22;12311;50.866;4.332;2022-07-05T06:55:58;17.10;99.90
24152;DHT22;12311;50.866;4.332;2022-07-05T06:58:24;17.10;99.90
24152;DHT22;12311;50.866;4.332;2022-07-05T07:00:50;17.10;99.90
24152;DHT22;12311;50.866;4.332;2022-07-05T07:03:15;17.20;99.90
24152;DHT22;12311;50.866;4.332;2022-07-05T07:05:41;17.30;99.90
24152;DHT22;12311;50.866;4.332;2022-07-05T07:08:07;17.30;99.90
24152;DHT22;12311;50.866;4.332;2022-07-05T07:10:51;17.40;99.90
24152;DHT22;12311;50.866;4.332;2022-07-05T07:13:17;17.60;99.90
24152;DHT22;12311;50.866;4.332;2022-07-05T07:15:44;17.60;99.90
24152;DHT22;12311;50.866;4.332;2022-07-05T07:18:11;17.80;99.90
24152;DHT22;12311;50.866;4.332;2022-07-05T07:20:37;17.70;99.90
24152;DHT22;12311;50.866;4.332;2022-07-05T07:23:03;17.70;99.90
24152;DHT22;12311;50.866;4.332;2022-07-05T07:25:28;17.70;99.90
24152;DHT22;12311;50.866;4.332;2022-07-05T07:27:55;17.80;99.90
24152;DHT22;12311;50.866;4.332;2022-07-05T07:30:26;17.90;99.90
24152;DHT22;12311;50.866;4.332;2022-07-05T07:32:52;17.90;99.90
24152;DHT22;12311;50.866;4.332;2022-07-05T07:35:18;18.00;99.90
24152;DHT22;12311;50.866;4.332;2022-07-05T07:37:44;18.00;99.90
24152;DHT22;12311;50.866;4.332;2022-07-05T07:40:10;18.10;99.90
24152;DHT22;12311;50.866;4.332;2022-07-05T07:42:36;18.30;99.90
24152;DHT22;12311;50.866;4.332;2022-07-05T07:45:03;18.70;99.90
24152;DHT22;12311;50.866;4.332;2022-07-05T07:47:33;18.90;99.90
24152;DHT22;12311;50.866;4.332;2022-07-05T07:50:01;18.80;99.90
24152;DHT22;12311;50.866;4.332;2022-07-05T07:52:27;18.70;99.90
24152;DHT22;12311;50.866;4.332;2022-07-05T07:54:53;18.80;99.90
24152;DHT22;12311;50.866;4.332;2022-07-05T07:57:18;19.00;99.90
24152;DHT22;12311;50.866;4.332;2022-07-05T07:59:44;19.30;99.90
24152;DHT22;12311;50.866;4.332;2022-07-05T08:02:10;19.50;99.90
24152;DHT22;12311;50.866;4.332;2022-07-05T08:04:36;19.40;99.90
24152;DHT22;12311;50.866;4.332;2022-07-05T08:07:02;19.40;99.90
24152;DHT22;12311;50.866;4.332;2022-07-05T08:09:29;19.20;99.90
24152;DHT22;12311;50.866;4.332;2022-07-05T08:11:55;19.30;99.90
24152;DHT22;12311;50.866;4.332;2022-07-05T08:14:21;19.60;99.90
24152;DHT22;12311;50.866;4.332;2022-07-05T08:16:48;19.90;99.90
24152;DHT22;12311;50.866;4.332;2022-07-05T08:19:14;20.10;99.90
24152;DHT22;12311;50.866;4.332;2022-07-05T08:21:59;20.20;99.90
24152;DHT22;12311;50.866;4.332;2022-07-05T08:24:25;20.00;99.90
24152;DHT22;12311;50.866;4.332;2022-07-05T08:26:51;20.10;99.90
24152;DHT22;12311;50.866;4.332;2022-07-05T08:29:16;20.00;99.90
24152;DHT22;12311;50.866;4.332;2022-07-05T08:31:45;20.10;99.90
24152;DHT22;12311;50.866;4.332;2022-07-05T08:34:12;20.30;99.90
24152;DHT22;12311;50.866;4.332;2022-07-05T08:36:38;20.20;99.90
24152;DHT22;12311;50.866;4.332;2022-07-05T08:39:05;20.20;99.90
24152;DHT22;12311;50.866;4.332;2022-07-05T08:41:34;20.00;99.90
24152;DHT22;12311;50.866;4.332;2022-07-05T08:44:01;19.90;99.90
24152;DHT22;12311;50.866;4.332;2022-07-05T08:46:30;19.90;99.90
24152;DHT22;12311;50.866;4.332;2022-07-05T08:48:59;20.10;99.90
24152;DHT22;12311;50.866;4.332;2022-07-05T08:51:27;20.20;99.90
24152;DHT22;12311;50.866;4.332;2022-07-05T08:53:53;20.30;99.90
24152;DHT22;12311;50.866;4.332;2022-07-05T08:56:21;20.30;99.90
24152;DHT22;12311;50.866;4.332;2022-07-05T08:58:47;20.40;99.90
24152;DHT22;12311;50.866;4.332;2022-07-05T09:01:15;20.40;99.90
24152;DHT22;12311;50.866;4.332;2022-07-05T09:03:47;20.30;99.90
24152;DHT22;12311;50.866;4.332;2022-07-05T09:06:17;20.60;99.90
24152;DHT22;12311;50.866;4.332;2022-07-05T09:08:44;20.80;99.90
24152;DHT22;12311;50.866;4.332;2022-07-05T09:11:12;20.80;99.90
24152;DHT22;12311;50.866;4.332;2022-07-05T09:13:40;20.90;99.90
24152;DHT22;12311;50.866;4.332;2022-07-05T09:16:06;21.10;99.90
24152;DHT22;12311;50.866;4.332;2022-07-05T09:18:50;21.20;99.90
24152;DHT22;12311;50.866;4.332;2022-07-05T09:21:24;21.40;99.90
24152;DHT22;12311;50.866;4.332;2022-07-05T09:24:04;21.50;99.90
24152;DHT22;12311;50.866;4.332;2022-07-05T09:26:40;21.40;99.90
24152;DHT22;12311;50.866;4.332;2022-07-05T09:29:09;21.50;99.90
24152;DHT22;12311;50.866;4.332;2022-07-05T09:31:37;21.60;99.90
24152;DHT22;12311;50.866;4.332;2022-07-05T09:34:14;21.70;99.90
24152;DHT22;12311;50.866;4.332;2022-07-05T09:37:00;21.30;99.90
24152;DHT22;12311;50.866;4.332;2022-07-05T09:44:53;21.80;99.90
24152;DHT22;12311;50.866;4.332;2022-07-05T09:47:21;22.10;99.90
24152;DHT22;12311;50.866;4.332;2022-07-05T09:49:49;22.60;99.90
24152;DHT22;12311;50.866;4.332;2022-07-05T09:52:33;23.00;99.90
24152;DHT22;12311;50.866;4.332;2022-07-05T09:55:15;23.10;99.90
24152;DHT22;12311;50.866;4.332;2022-07-05T09:57:46;24.00;99.90
24152;DHT22;12311;50.866;4.332;2022-07-05T10:00:13;24.80;99.90
24152;DHT22;12311;50.866;4.332;2022-07-05T10:02:52;25.40;99.90
24152;DHT22;12311;50.866;4.332;2022-07-05T10:05:23;25.70;99.90
24152;DHT22;12311;50.866;4.332;2022-07-05T10:07:54;24.80;99.90
24152;DHT22;12311;50.866;4.332;2022-07-05T10:10:28;24.40;99.90
24152;DHT22;12311;50.866;4.332;2022-07-05T10:13:02;25.00;99.90
24152;DHT22;12311;50.866;4.332;2022-07-05T10:15:35;25.20;99.90
24152;DHT22;12311;50.866;4.332;2022-07-05T10:18:20;25.00;99.90
24152;DHT22;12311;50.866;4.332;2022-07-05T10:20:47;25.50;99.90
24152;DHT22;12311;50.866;4.332;2022-07-05T10:23:18;25.70;99.90
24152;DHT22;12311;50.866;4.332;2022-07-05T10:25:49;26.00;99.90
24152;DHT22;12311;50.866;4.332;2022-07-05T10:28:19;25.60;99.90
24152;DHT22;12311;50.866;4.332;2022-07-05T10:30:46;25.00;99.90
24152;DHT22;12311;50.866;4.332;2022-07-05T10:33:13;24.50;99.90
24152;DHT22;12311;50.866;4.332;2022-07-05T10:35:45;24.30;99.90
24152;DHT22;12311;50.866;4.332;2022-07-05T10:38:12;24.30;99.90
24152;DHT22;12311;50.866;4.332;2022-07-05T10:40:41;25.20;99.90
24152;DHT22;12311;50.866;4.332;2022-07-05T10:43:08;25.70;99.90
24152;DHT22;12311;50.866;4.332;2022-07-05T10:45:39;25.80;99.90
24152;DHT22;12311;50.866;4.332;2022-07-05T10:51:00;26.60;99.90
24152;DHT22;12311;50.866;4.332;2022-07-05T10:53:26;26.80;99.90
24152;DHT22;12311;50.866;4.332;2022-07-05T10:55:57;26.70;99.90
24152;DHT22;12311;50.866;4.332;2022-07-05T10:58:38;26.60;99.90
24152;DHT22;12311;50.866;4.332;2022-07-05T11:04:13;26.60;99.90
24152;DHT22;12311;50.866;4.332;2022-07-05T11:06:45;26.30;99.90
24152;DHT22;12311;50.866;4.332;2022-07-05T11:09:18;25.50;99.90
24152;DHT22;12311;50.866;4.332;2022-07-05T11:11:46;25.70;99.90
24152;DHT22;12311;50.866;4.332;2022-07-05T11:16:45;26.80;99.90
24152;DHT22;12311;50.866;4.332;2022-07-05T11:19:13;27.50;99.90
24152;DHT22;12311;50.866;4.332;2022-07-05T11:22:03;28.00;99.70
24152;DHT22;12311;50.866;4.332;2022-07-05T11:24:32;28.00;98.80
24152;DHT22;12311;50.866;4.332;2022-07-05T11:27:00;28.10;98.90
24152;DHT22;12311;50.866;4.332;2022-07-05T11:29:42;28.00;99.50
24152;DHT22;12311;50.866;4.332;2022-07-05T11:34:42;26.50;99.90
24152;DHT22;12311;50.866;4.332;2022-07-05T11:39:43;25.30;99.90
24152;DHT22;12311;50.866;4.332;2022-07-05T11:42:09;25.20;99.90
24152;DHT22;12311;50.866;4.332;2022-07-05T11:44:36;25.20;99.90
24152;DHT22;12311;50.866;4.332;2022-07-05T11:47:02;25.00;99.90
24152;DHT22;12311;50.866;4.332;2022-07-05T11:49:30;25.10;99.90
24152;DHT22;12311;50.866;4.332;2022-07-05T11:52:00;24.90;99.90
24152;DHT22;12311;50.866;4.332;2022-07-05T11:54:28;25.00;99.90
24152;DHT22;12311;50.866;4.332;2022-07-05T11:56:54;25.50;99.90
24152;DHT22;12311;50.866;4.332;2022-07-05T11:59:23;26.20;99.90
24152;DHT22;12311;50.866;4.332;2022-07-05T12:01:49;27.40;99.90
24152;DHT22;12311;50.866;4.332;2022-07-05T12:04:26;28.20;99.70
24152;DHT22;12311;50.866;4.332;2022-07-05T12:06:52;28.90;98.70
24152;DHT22;12311;50.866;4.332;2022-07-05T12:09:32;28.40;99.10
24152;DHT22;12311;50.866;4.332;2022-07-05T12:12:20;27.60;99.60
24152;DHT22;12311;50.866;4.332;2022-07-05T12:15:06;27.30;99.80
24152;DHT22;12311;50.866;4.332;2022-07-05T12:17:34;27.20;99.90
24152;DHT22;12311;50.866;4.332;2022-07-05T12:20:00;27.70;99.90
24152;DHT22;12311;50.866;4.332;2022-07-05T12:22:43;28.40;99.20
24152;DHT22;12311;50.866;4.332;2022-07-05T12:25:12;28.40;98.60
24152;DHT22;12311;50.866;4.332;2022-07-05T12:27:40;27.90;99.20
24152;DHT22;12311;50.866;4.332;2022-07-05T12:30:07;27.70;99.40
24152;DHT22;12311;50.866;4.332;2022-07-05T12:35:34;27.30;99.90
24152;DHT22;12311;50.866;4.332;2022-07-05T12:40:33;27.50;99.90
24152;DHT22;12311;50.866;4.332;2022-07-05T12:43:06;27.60;99.90
24152;DHT22;12311;50.866;4.332;2022-07-05T12:45:33;28.10;99.90
24152;DHT22;12311;50.866;4.332;2022-07-05T12:48:01;28.80;99.30
24152;DHT22;12311;50.866;4.332;2022-07-05T12:50:29;28.30;99.40
24152;DHT22;12311;50.866;4.332;2022-07-05T12:53:02;27.40;99.90
24152;DHT22;12311;50.866;4.332;2022-07-05T12:55:49;26.50;99.90
24152;DHT22;12311;50.866;4.332;2022-07-05T12:58:48;26.30;99.90
24152;DHT22;12311;50.866;4.332;2022-07-05T13:01:24;25.90;99.90
24152;DHT22;12311;50.866;4.332;2022-07-05T13:04:08;25.90;99.90
24152;DHT22;12311;50.866;4.332;2022-07-05T13:09:14;25.80;99.90
24152;DHT22;12311;50.866;4.332;2022-07-05T13:11:40;25.40;99.90
24152;DHT22;12311;50.866;4.332;2022-07-05T13:14:06;25.40;99.90
24152;DHT22;12311;50.866;4.332;2022-07-05T13:16:31;25.40;99.90
24152;DHT22;12311;50.866;4.332;2022-07-05T13:19:10;25.30;99.90
24152;DHT22;12311;50.866;4.332;2022-07-05T13:21:36;25.50;99.90
24152;DHT22;12311;50.866;4.332;2022-07-05T13:24:03;25.80;99.90
24152;DHT22;12311;50.866;4.332;2022-07-05T13:26:29;25.80;99.90
24152;DHT22;12311;50.866;4.332;2022-07-05T13:28:54;25.70;99.90
24152;DHT22;12311;50.866;4.332;2022-07-05T13:31:20;26.10;99.90
24152;DHT22;12311;50.866;4.332;2022-07-05T13:33:46;27.50;99.90
24152;DHT22;12311;50.866;4.332;2022-07-05T13:36:12;28.60;98.50
24152;DHT22;12311;50.866;4.332;2022-07-05T13:38:37;28.80;97.80
24152;DHT22;12311;50.866;4.332;2022-07-05T13:41:03;28.30;97.80
24152;DHT22;12311;50.866;4.332;2022-07-05T13:43:29;27.50;98.90
24152;DHT22;12311;50.866;4.332;2022-07-05T13:45:55;27.00;99.80
24152;DHT22;12311;50.866;4.332;2022-07-05T13:48:20;26.80;99.90
24152;DHT22;12311;50.866;4.332;2022-07-05T13:50:46;26.10;99.90
24152;DHT22;12311;50.866;4.332;2022-07-05T13:53:11;26.30;99.90
24152;DHT22;12311;50.866;4.332;2022-07-05T13:55:37;26.50;99.90
24152;DHT22;12311;50.866;4.332;2022-07-05T13:58:02;26.30;99.90
24152;DHT22;12311;50.866;4.332;2022-07-05T14:00:28;26.20;99.90
24152;DHT22;12311;50.866;4.332;2022-07-05T14:02:54;26.20;99.90
24152;DHT22;12311;50.866;4.332;2022-07-05T14:05:20;26.00;99.90
24152;DHT22;12311;50.866;4.332;2022-07-05T14:07:49;25.80;99.90
24152;DHT22;12311;50.866;4.332;2022-07-05T14:10:15;25.60;99.90
24152;DHT22;12311;50.866;4.332;2022-07-05T14:12:41;25.60;99.90
24152;DHT22;12311;50.866;4.332;2022-07-05T14:15:07;26.20;99.90
24152;DHT22;12311;50.866;4.332;2022-07-05T14:17:33;25.90;99.90
24152;DHT22;12311;50.866;4.332;2022-07-05T14:19:59;25.80;99.90
24152;DHT22;12311;50.866;4.332;2022-07-05T14:22:24;26.50;99.90
24152;DHT22;12311;50.866;4.332;2022-07-05T14:24:50;27.10;99.30
24152;DHT22;12311;50.866;4.332;2022-07-05T14:27:16;26.80;99.50
24152;DHT22;12311;50.866;4.332;2022-07-05T14:29:42;26.40;99.90
24152;DHT22;12311;50.866;4.332;2022-07-05T14:32:08;26.10;99.90
24152;DHT22;12311;50.866;4.332;2022-07-05T14:34:34;26.20;99.90
24152;DHT22;12311;50.866;4.332;2022-07-05T14:36:59;26.70;99.80
24152;DHT22;12311;50.866;4.332;2022-07-05T14:39:25;27.30;99.10
24152;DHT22;12311;50.866;4.332;2022-07-05T14:41:51;28.10;97.90
24152;DHT22;12311;50.866;4.332;2022-07-05T14:44:17;28.30;97.40
24152;DHT22;12311;50.866;4.332;2022-07-05T14:46:43;28.40;97.10
24152;DHT22;12311;50.866;4.332;2022-07-05T14:49:08;28.00;97.20
24152;DHT22;12311;50.866;4.332;2022-07-05T14:51:34;27.70;97.80
24152;DHT22;12311;50.866;4.332;2022-07-05T14:54:00;28.10;97.30
24152;DHT22;12311;50.866;4.332;2022-07-05T14:56:25;28.70;96.60
24152;DHT22;12311;50.866;4.332;2022-07-05T14:58:51;28.80;96.30
24152;DHT22;12311;50.866;4.332;2022-07-05T15:01:17;28.70;96.00
24152;DHT22;12311;50.866;4.332;2022-07-05T15:03:45;28.80;96.00
24152;DHT22;12311;50.866;4.332;2022-07-05T15:06:11;29.10;95.20
24152;DHT22;12311;50.866;4.332;2022-07-05T15:08:37;29.40;93.90
24152;DHT22;12311;50.866;4.332;2022-07-05T15:11:03;29.60;93.40
24152;DHT22;12311;50.866;4.332;2022-07-05T15:13:32;29.20;94.10
24152;DHT22;12311;50.866;4.332;2022-07-05T15:15:59;29.10;93.30
24152;DHT22;12311;50.866;4.332;2022-07-05T15:18:24;29.30;93.60
24152;DHT22;12311;50.866;4.332;2022-07-05T15:20:51;29.40;92.80
24152;DHT22;12311;50.866;4.332;2022-07-05T15:23:17;29.50;92.80
24152;DHT22;12311;50.866;4.332;2022-07-05T15:25:44;29.40;92.60
24152;DHT22;12311;50.866;4.332;2022-07-05T15:28:10;29.50;92.30
24152;DHT22;12311;50.866;4.332;2022-07-05T15:30:39;29.50;91.60
24152;DHT22;12311;50.866;4.332;2022-07-05T15:33:04;29.00;91.40
24152;DHT22;12311;50.866;4.332;2022-07-05T15:35:30;29.00;91.70
24152;DHT22;12311;50.866;4.332;2022-07-05T15:37:56;28.70;91.70
24152;DHT22;12311;50.866;4.332;2022-07-05T15:40:24;28.30;91.90
24152;DHT22;12311;50.866;4.332;2022-07-05T15:42:49;27.70;92.80
24152;DHT22;12311;50.866;4.332;2022-07-05T15:45:15;27.40;93.00
24152;DHT22;12311;50.866;4.332;2022-07-05T15:47:40;26.90;93.80
24152;DHT22;12311;50.866;4.332;2022-07-05T15:50:08;26.60;94.30
24152;DHT22;12311;50.866;4.332;2022-07-05T15:52:36;26.50;94.60
24152;DHT22;12311;50.866;4.332;2022-07-05T15:55:02;26.50;95.10
24152;DHT22;12311;50.866;4.332;2022-07-05T15:57:28;26.60;94.30
24152;DHT22;12311;50.866;4.332;2022-07-05T15:59:54;26.40;94.40
24152;DHT22;12311;50.866;4.332;2022-07-05T16:02:22;26.50;94.30